createdAt,value
2022-08-09T00:00:25.546Z,17.12
2022-08-09T00:01:25.588Z,17.06
2022-08-09T00:02:25.842Z,17.01
2022-08-09T00:04:05.590Z,16.98
2022-08-09T00:04:34.724Z,16.94
2022-08-09T00:06:18.957Z,16.90
2022-08-09T00:06:27.570Z,16.86
2022-08-09T00:07:25.435Z,16.81
2022-08-09T00:08:32.886Z,16.77
2022-08-09T00:09:25.434Z,16.73
2022-08-09T00:10:25.397Z,16.70
2022-08-09T00:12:02.597Z,16.68
2022-08-09T00:12:25.407Z,16.68
2022-08-09T00:13:25.411Z,16.69
2022-08-09T00:14:36.431Z,16.72
2022-08-09T00:15:26.475Z,16.77
2022-08-09T00:16:25.853Z,16.82
2022-08-09T00:18:05.710Z,16.85
2022-08-09T00:18:25.314Z,16.88
2022-08-09T00:19:25.281Z,16.92
2022-08-09T00:20:25.313Z,16.94
2022-08-09T00:21:25.273Z,16.97
2022-08-09T00:22:25.255Z,16.99
2022-08-09T00:23:55.082Z,17.03
2022-08-09T00:24:27.557Z,17.08
2022-08-09T00:25:32.085Z,17.12
2022-08-09T00:26:29.951Z,17.13
2022-08-09T00:27:25.198Z,17.14
2022-08-09T00:28:26.416Z,17.15
2022-08-09T00:30:16.546Z,17.17
2022-08-09T00:30:30.413Z,17.19
2022-08-09T00:31:55.862Z,17.21
2022-08-09T00:32:26.976Z,17.22
2022-08-09T00:33:32.742Z,17.24
2022-08-09T00:34:25.150Z,17.26
2022-08-09T00:35:25.081Z,17.28
2022-08-09T00:36:29.642Z,17.29
2022-08-09T00:37:25.076Z,17.29
2022-08-09T00:38:25.076Z,17.29
2022-08-09T00:40:12.231Z,17.28
2022-08-09T00:40:30.122Z,17.27
2022-08-09T00:44:11.235Z,17.27
2022-08-09T00:44:27.261Z,17.27
2022-08-09T00:44:33.200Z,17.28
2022-08-09T00:45:34.691Z,17.31
2022-08-09T00:46:56.641Z,17.35
2022-08-09T00:47:35.858Z,17.38
2022-08-09T00:48:32.895Z,17.42
2022-08-09T00:49:32.940Z,17.46
2022-08-09T00:50:32.893Z,17.48
2022-08-09T00:51:33.884Z,17.51
2022-08-09T00:52:33.089Z,17.53
2022-08-09T00:53:32.836Z,17.55
2022-08-09T00:54:35.129Z,17.58
2022-08-09T00:56:05.369Z,17.61
2022-08-09T00:56:32.816Z,17.63
2022-08-09T00:57:34.481Z,17.65
2022-08-09T00:58:32.847Z,17.67
2022-08-09T00:59:41.638Z,17.69
2022-08-09T01:00:32.767Z,17.69
2022-08-09T01:01:32.708Z,17.69
2022-08-09T01:02:32.939Z,17.68
2022-08-09T01:03:32.830Z,17.67
2022-08-09T01:04:32.697Z,17.65
2022-08-09T01:05:53.944Z,17.63
2022-08-09T01:06:53.132Z,17.61
2022-08-09T01:07:37.995Z,17.59
2022-08-09T01:08:32.650Z,17.59
2022-08-09T01:09:35.929Z,17.60
2022-08-09T01:10:32.618Z,17.61
2022-08-09T01:11:32.613Z,17.62
2022-08-09T01:12:32.848Z,17.62
2022-08-09T01:13:41.764Z,17.62
2022-08-09T01:14:32.578Z,17.63
2022-08-09T01:15:32.588Z,17.63
2022-08-09T01:16:32.590Z,17.63
2022-08-09T01:17:34.138Z,17.64
2022-08-09T01:18:32.497Z,17.65
2022-08-09T01:19:39.944Z,17.65
2022-08-09T01:20:32.480Z,17.66
2022-08-09T01:21:41.321Z,17.67
2022-08-09T01:22:32.898Z,17.67
2022-08-09T01:24:02.106Z,17.67
2022-08-09T01:24:32.442Z,17.65
2022-08-09T01:25:32.429Z,17.64
2022-08-09T01:26:32.423Z,17.62
2022-08-09T01:27:32.397Z,17.62
2022-08-09T01:28:32.389Z,17.63
2022-08-09T01:29:55.074Z,17.64
2022-08-09T01:30:51.338Z,17.64
2022-08-09T01:32:30.118Z,17.64
2022-08-09T01:32:38.295Z,17.64
2022-08-09T01:33:32.350Z,17.64
2022-08-09T01:34:32.322Z,17.64
2022-08-09T01:35:37.593Z,17.64
2022-08-09T01:36:32.292Z,17.64
2022-08-09T01:38:06.316Z,17.63
2022-08-09T01:38:32.268Z,17.63
2022-08-09T01:39:32.298Z,17.62
2022-08-09T01:40:32.222Z,17.62
2022-08-09T01:41:32.194Z,17.63
2022-08-09T01:42:32.450Z,17.66
2022-08-09T01:43:32.190Z,17.69
2022-08-09T01:44:32.215Z,17.71
2022-08-09T01:45:32.148Z,17.73
2022-08-09T01:46:32.394Z,17.74
2022-08-09T01:47:32.128Z,17.73
2022-08-09T01:48:32.106Z,17.72
2022-08-09T01:49:39.239Z,17.71
2022-08-09T01:50:37.203Z,17.70
2022-08-09T01:51:32.942Z,17.69
2022-08-09T01:52:32.385Z,17.67
2022-08-09T01:53:41.375Z,17.66
2022-08-09T01:54:32.970Z,17.64
2022-08-09T01:55:32.010Z,17.63
2022-08-09T01:56:32.003Z,17.62
2022-08-09T01:57:32.024Z,17.60
2022-08-09T01:58:31.987Z,17.59
2022-08-09T01:59:32.372Z,17.57
2022-08-09T02:00:35.897Z,17.55
2022-08-09T02:01:58.390Z,17.53
2022-08-09T02:02:32.886Z,17.51
2022-08-09T02:03:31.938Z,17.48
2022-08-09T02:04:32.097Z,17.44
2022-08-09T02:05:38.105Z,17.41
2022-08-09T02:06:32.340Z,17.38
2022-08-09T02:08:38.807Z,17.34
2022-08-09T02:08:58.636Z,17.30
2022-08-09T02:09:42.674Z,17.26
2022-08-09T02:10:31.826Z,17.22
2022-08-09T02:11:43.512Z,17.17
2022-08-09T02:12:31.934Z,17.14
2022-08-09T02:13:37.582Z,17.12
2022-08-09T02:14:31.799Z,17.10
2022-08-09T02:15:48.832Z,17.10
2022-08-09T02:16:35.291Z,17.10
2022-08-09T02:17:59.787Z,17.09
2022-08-09T02:18:31.730Z,17.07
2022-08-09T02:19:38.638Z,17.06
2022-08-09T02:20:32.889Z,17.04
2022-08-09T02:21:31.681Z,17.01
2022-08-09T02:22:34.976Z,16.98
2022-08-09T02:23:32.057Z,16.93
2022-08-09T02:24:31.639Z,16.89
2022-08-09T02:25:31.610Z,16.85
2022-08-09T02:26:31.614Z,16.81
2022-08-09T02:27:57.538Z,16.79
2022-08-09T02:28:31.571Z,16.77
2022-08-09T02:29:32.721Z,16.75
2022-08-09T02:30:31.564Z,16.72
2022-08-09T02:31:35.577Z,16.69
2022-08-09T02:32:31.678Z,16.65
2022-08-09T02:33:38.344Z,16.60
2022-08-09T02:34:40.631Z,16.55
2022-08-09T02:36:03.531Z,16.50
2022-08-09T02:36:31.514Z,16.45
2022-08-09T02:37:33.022Z,16.40
2022-08-09T02:38:31.459Z,16.35
2022-08-09T02:39:39.678Z,16.31
2022-08-09T02:40:31.473Z,16.29
2022-08-09T02:41:31.406Z,16.28
2022-08-09T02:42:31.773Z,16.30
2022-08-09T02:43:31.402Z,16.32
2022-08-09T02:44:31.398Z,16.35
2022-08-09T02:45:31.356Z,16.38
2022-08-09T02:46:31.339Z,16.41
2022-08-09T02:47:33.939Z,16.44
2022-08-09T02:48:31.623Z,16.47
2022-08-09T02:49:40.928Z,16.50
2022-08-09T02:50:31.275Z,16.53
2022-08-09T02:51:37.071Z,16.56
2022-08-09T02:52:31.480Z,16.59
2022-08-09T02:53:31.278Z,16.63
2022-08-09T02:54:31.631Z,16.66
2022-08-09T02:55:46.372Z,16.69
2022-08-09T02:56:31.180Z,16.72
2022-08-09T02:57:31.183Z,16.76
2022-08-09T02:58:35.629Z,16.80
2022-08-09T02:59:36.567Z,16.82
2022-08-09T03:00:31.157Z,16.85
2022-08-09T03:01:43.331Z,16.87
2022-08-09T03:02:31.447Z,16.89
2022-08-09T03:04:13.205Z,16.90
2022-08-09T03:04:31.104Z,16.91
2022-08-09T03:05:34.704Z,16.91
2022-08-09T03:06:31.074Z,16.92
2022-08-09T03:07:31.054Z,16.93
2022-08-09T03:08:31.031Z,16.94
2022-08-09T03:09:33.743Z,16.95
2022-08-09T03:10:31.016Z,16.98
2022-08-09T03:12:10.506Z,17.01
2022-08-09T03:12:31.185Z,17.04
2022-08-09T03:13:43.941Z,17.06
2022-08-09T03:14:30.948Z,17.07
2022-08-09T03:15:40.440Z,17.09
2022-08-09T03:16:30.923Z,17.10
2022-08-09T03:17:30.913Z,17.11
2022-08-09T03:18:31.191Z,17.11
2022-08-09T03:19:59.204Z,17.11
2022-08-09T03:20:30.874Z,17.11
2022-08-09T03:21:36.613Z,17.13
2022-08-09T03:22:31.084Z,17.14
2022-08-09T03:23:30.813Z,17.14
2022-08-09T03:24:31.488Z,17.14
2022-08-09T03:25:58.597Z,17.12
2022-08-09T03:26:32.067Z,17.10
2022-08-09T03:27:30.777Z,17.08
2022-08-09T03:28:30.753Z,17.07
2022-08-09T03:29:30.741Z,17.07
2022-08-09T03:30:34.072Z,17.08
2022-08-09T03:31:30.732Z,17.10
2022-08-09T03:32:31.069Z,17.14
2022-08-09T03:33:54.046Z,17.17
2022-08-09T03:34:30.685Z,17.19
2022-08-09T03:35:44.340Z,17.21
2022-08-09T03:36:30.661Z,17.22
2022-08-09T03:37:57.101Z,17.22
2022-08-09T03:38:30.714Z,17.22
2022-08-09T03:39:37.822Z,17.22
2022-08-09T03:40:30.887Z,17.22
2022-08-09T03:41:48.391Z,17.22
2022-08-09T03:42:30.901Z,17.22
2022-08-09T03:43:31.694Z,17.23
2022-08-09T03:44:32.057Z,17.24
2022-08-09T03:46:03.859Z,17.25
2022-08-09T03:46:30.542Z,17.25
2022-08-09T03:47:30.489Z,17.25
2022-08-09T03:48:30.992Z,17.24
2022-08-09T03:49:35.637Z,17.23
2022-08-09T03:50:32.028Z,17.23
2022-08-09T03:51:43.866Z,17.23
2022-08-09T03:52:30.631Z,17.25
2022-08-09T03:53:32.174Z,17.26
2022-08-09T03:54:31.325Z,17.27
2022-08-09T03:55:36.132Z,17.27
2022-08-09T03:56:30.388Z,17.27
2022-08-09T03:57:30.377Z,17.28
2022-08-09T03:58:30.369Z,17.28
2022-08-09T03:59:43.227Z,17.28
2022-08-09T04:00:30.357Z,17.28
2022-08-09T04:01:30.306Z,17.28
2022-08-09T04:02:30.726Z,17.27
2022-08-09T04:03:46.101Z,17.27
2022-08-09T04:04:36.277Z,17.26
2022-08-09T04:05:32.292Z,17.25
2022-08-09T04:06:30.251Z,17.24
2022-08-09T04:07:33.790Z,17.23
2022-08-09T04:08:30.244Z,17.23
2022-08-09T04:09:48.170Z,17.24
2022-08-09T04:10:30.595Z,17.25
2022-08-09T04:11:30.180Z,17.26
2022-08-09T04:12:31.678Z,17.27
2022-08-09T04:14:36.666Z,17.27
2022-08-09T04:15:00.646Z,17.27
2022-08-09T04:15:52.400Z,17.28
2022-08-09T04:16:30.139Z,17.29
2022-08-09T04:17:30.117Z,17.29
2022-08-09T04:18:30.096Z,17.30
2022-08-09T04:19:50.969Z,17.30
2022-08-09T04:20:30.073Z,17.29
2022-08-09T04:21:30.066Z,17.29
2022-08-09T04:22:30.293Z,17.28
2022-08-09T04:23:30.039Z,17.29
2022-08-09T04:24:30.031Z,17.29
2022-08-09T04:25:30.006Z,17.29
2022-08-09T04:26:35.059Z,17.30
2022-08-09T04:27:30.001Z,17.32
2022-08-09T04:28:32.943Z,17.35
2022-08-09T04:29:30.105Z,17.37
2022-08-09T04:30:29.947Z,17.38
2022-08-09T04:31:37.583Z,17.39
2022-08-09T04:32:34.114Z,17.40
2022-08-09T04:33:29.911Z,17.41
2022-08-09T04:34:31.694Z,17.42
2022-08-09T04:35:32.856Z,17.43
2022-08-09T04:36:29.856Z,17.44
2022-08-09T04:37:45.226Z,17.45
2022-08-09T04:38:29.856Z,17.47
2022-08-09T04:39:30.884Z,17.48
2022-08-09T04:40:36.131Z,17.49
2022-08-09T04:41:33.026Z,17.51
2022-08-09T04:42:30.106Z,17.53
2022-08-09T04:43:29.777Z,17.55
2022-08-09T04:44:29.789Z,17.57
2022-08-09T04:45:30.601Z,17.59
2022-08-09T04:46:36.450Z,17.61
2022-08-09T04:47:33.179Z,17.64
2022-08-09T04:48:33.502Z,17.66
2022-08-09T04:49:40.430Z,17.67
2022-08-09T04:50:31.890Z,17.68
2022-08-09T04:51:29.666Z,17.69
2022-08-09T04:52:29.804Z,17.70
2022-08-09T04:53:31.459Z,17.70
2022-08-09T04:54:29.613Z,17.71
2022-08-09T04:55:38.337Z,17.71
2022-08-09T04:56:29.617Z,17.71
2022-08-09T04:57:58.596Z,17.72
2022-08-09T04:58:31.685Z,17.72
2022-08-09T04:59:30.132Z,17.73
2022-08-09T05:00:31.788Z,17.74
2022-08-09T05:01:29.512Z,17.75
2022-08-09T05:02:29.508Z,17.77
2022-08-09T05:03:40.979Z,17.78
2022-08-09T05:04:30.650Z,17.79
2022-08-09T05:05:31.851Z,17.79
2022-08-09T05:06:32.640Z,17.79
2022-08-09T05:07:32.014Z,17.81
2022-08-09T05:08:29.499Z,17.82
2022-08-09T05:09:42.021Z,17.84
2022-08-09T05:10:29.397Z,17.86
2022-08-09T05:11:32.170Z,17.88
2022-08-09T05:12:29.390Z,17.89
2022-08-09T05:13:29.362Z,17.90
2022-08-09T05:14:29.342Z,17.92
2022-08-09T05:15:39.405Z,17.94
2022-08-09T05:16:31.980Z,17.95
2022-08-09T05:18:38.719Z,17.97
2022-08-09T05:18:59.052Z,17.98
2022-08-09T05:19:38.406Z,18.00
2022-08-09T05:20:29.937Z,18.03
2022-08-09T05:21:29.964Z,18.06
2022-08-09T05:22:35.109Z,18.09
2022-08-09T05:24:01.622Z,18.11
2022-08-09T05:24:29.233Z,18.13
2022-08-09T05:25:32.412Z,18.13
2022-08-09T05:26:36.743Z,18.13
2022-08-09T05:27:31.019Z,18.14
2022-08-09T05:28:29.190Z,18.14
2022-08-09T05:29:31.514Z,18.14
2022-08-09T05:30:31.184Z,18.15
2022-08-09T05:31:44.427Z,18.15
2022-08-09T05:32:30.053Z,18.17
2022-08-09T05:33:33.174Z,18.18
2022-08-09T05:34:30.843Z,18.20
2022-08-09T05:35:29.071Z,18.23
2022-08-09T05:36:29.096Z,18.28
2022-08-09T05:37:29.040Z,18.33
2022-08-09T05:38:29.048Z,18.38
2022-08-09T05:39:35.855Z,18.43
2022-08-09T05:40:29.065Z,18.47
2022-08-09T05:41:29.063Z,18.51
2022-08-09T05:42:28.991Z,18.54
2022-08-09T05:43:31.974Z,18.58
2022-08-09T05:44:32.785Z,18.59
2022-08-09T05:45:52.545Z,18.57
2022-08-09T05:46:28.944Z,18.54
2022-08-09T05:47:30.407Z,18.50
2022-08-09T05:48:33.241Z,18.48
2022-08-09T05:50:29.980Z,18.48
2022-08-09T05:50:57.061Z,18.51
2022-08-09T05:51:42.828Z,18.56
2022-08-09T05:52:31.630Z,18.64
2022-08-09T05:53:33.398Z,18.72
2022-08-09T05:54:28.844Z,18.78
2022-08-09T05:55:28.850Z,18.84
2022-08-09T05:56:28.841Z,18.87
2022-08-09T05:57:50.890Z,18.87
2022-08-09T05:58:28.769Z,18.88
2022-08-09T05:59:28.775Z,18.89
2022-08-09T06:00:29.576Z,18.91
2022-08-09T06:01:33.631Z,18.92
2022-08-09T06:02:28.814Z,18.91
2022-08-09T06:03:34.879Z,18.89
2022-08-09T06:04:35.080Z,18.91
2022-08-09T06:05:31.255Z,18.94
2022-08-09T06:06:28.689Z,18.95
2022-08-09T06:07:28.667Z,18.94
2022-08-09T06:08:28.656Z,18.95
2022-08-09T06:09:54.160Z,18.97
2022-08-09T06:10:28.611Z,18.99
2022-08-09T06:11:40.858Z,19.01
2022-08-09T06:12:28.683Z,19.05
2022-08-09T06:13:33.792Z,19.09
2022-08-09T06:14:28.620Z,19.12
2022-08-09T06:15:28.552Z,19.17
2022-08-09T06:16:28.547Z,19.19
2022-08-09T06:17:40.284Z,19.18
2022-08-09T06:18:28.521Z,19.14
2022-08-09T06:19:28.503Z,19.09
2022-08-09T06:20:28.495Z,19.07
2022-08-09T06:21:28.492Z,19.07
2022-08-09T06:22:28.996Z,19.09
2022-08-09T06:23:57.461Z,19.12
2022-08-09T06:24:28.444Z,19.16
2022-08-09T06:25:28.432Z,19.19
2022-08-09T06:26:28.949Z,19.20
2022-08-09T06:27:42.329Z,19.21
2022-08-09T06:28:32.044Z,19.20
2022-08-09T06:29:28.375Z,19.16
2022-08-09T06:30:28.336Z,19.13
2022-08-09T06:31:31.175Z,19.14
2022-08-09T06:33:13.376Z,19.16
2022-08-09T06:33:52.987Z,19.17
2022-08-09T06:34:30.751Z,19.21
2022-08-09T06:35:56.482Z,19.26
2022-08-09T06:36:29.898Z,19.31
2022-08-09T06:37:28.860Z,19.37
2022-08-09T06:38:32.103Z,19.40
2022-08-09T06:39:48.232Z,19.46
2022-08-09T06:40:28.293Z,19.57
2022-08-09T06:41:58.856Z,19.72
2022-08-09T06:42:30.549Z,19.86
2022-08-09T06:43:34.063Z,19.99
2022-08-09T06:44:28.197Z,20.10
2022-08-09T06:46:07.785Z,20.13
2022-08-09T06:46:40.176Z,20.11
2022-08-09T06:47:30.082Z,20.08
2022-08-09T06:48:30.938Z,20.06
2022-08-09T06:49:45.163Z,20.03
2022-08-09T06:50:28.162Z,20.03
2022-08-09T06:51:28.320Z,20.08
2022-08-09T06:52:28.048Z,20.15
2022-08-09T06:53:33.395Z,20.20
2022-08-09T06:54:28.052Z,20.24
2022-08-09T06:55:28.028Z,20.26
2022-08-09T06:56:30.821Z,20.31
2022-08-09T06:58:01.640Z,20.39
2022-08-09T06:58:40.625Z,20.47
2022-08-09T07:00:59.845Z,20.55
2022-08-09T07:01:05.495Z,20.63
2022-08-09T07:02:05.552Z,20.71
2022-08-09T07:03:06.186Z,20.76
2022-08-09T07:04:05.431Z,20.76
2022-08-09T07:05:05.421Z,20.75
2022-08-09T07:06:05.597Z,20.75
2022-08-09T07:07:05.397Z,20.76
2022-08-09T07:08:05.379Z,20.83
2022-08-09T07:09:05.385Z,20.90
2022-08-09T07:10:14.246Z,20.98
2022-08-09T07:11:06.540Z,21.01
2022-08-09T07:12:05.334Z,21.02
2022-08-09T07:13:27.674Z,21.04
2022-08-09T07:14:06.347Z,21.05
2022-08-09T07:16:36.695Z,21.03
2022-08-09T07:16:48.155Z,21.00
2022-08-09T07:17:05.261Z,20.96
2022-08-09T07:18:05.235Z,20.93
2022-08-09T07:19:05.280Z,20.92
2022-08-09T07:20:05.193Z,20.93
2022-08-09T07:21:07.662Z,20.98
2022-08-09T07:22:05.202Z,21.04
2022-08-09T07:23:18.248Z,21.08
2022-08-09T07:24:05.186Z,21.09
2022-08-09T07:25:09.810Z,21.09
2022-08-09T07:26:05.152Z,21.09
2022-08-09T07:27:10.893Z,21.13
2022-08-09T07:28:05.120Z,21.22
2022-08-09T07:29:13.116Z,21.35
2022-08-09T07:30:05.503Z,21.45
2022-08-09T07:31:05.104Z,21.52
2022-08-09T07:32:05.052Z,21.56
2022-08-09T07:33:10.281Z,21.60
2022-08-09T07:34:05.166Z,21.66
2022-08-09T07:35:10.062Z,21.69
2022-08-09T07:36:05.018Z,21.67
2022-08-09T07:37:04.987Z,21.58
2022-08-09T07:38:05.017Z,21.46
2022-08-09T07:39:05.038Z,21.35
2022-08-09T07:40:05.176Z,21.28
2022-08-09T07:41:13.157Z,21.23
2022-08-09T07:42:05.110Z,21.19
2022-08-09T07:43:14.725Z,21.19
2022-08-09T07:44:04.922Z,21.22
2022-08-09T07:45:06.488Z,21.26
2022-08-09T07:46:04.858Z,21.33
2022-08-09T07:47:04.893Z,21.42
2022-08-09T07:48:05.236Z,21.46
2022-08-09T07:49:04.813Z,21.51
2022-08-09T07:50:08.525Z,21.60
2022-08-09T07:52:02.445Z,21.71
2022-08-09T07:52:17.718Z,21.83
2022-08-09T07:53:05.235Z,21.92
2022-08-09T07:54:08.468Z,22.00
2022-08-09T07:55:09.732Z,22.05
2022-08-09T07:56:06.666Z,22.09
2022-08-09T07:57:04.748Z,22.13
2022-08-09T07:58:04.726Z,22.07
2022-08-09T07:59:10.505Z,22.02
2022-08-09T08:00:04.685Z,22.08
2022-08-09T08:01:06.666Z,22.23
2022-08-09T08:02:04.905Z,22.41
2022-08-09T08:03:08.033Z,22.54
2022-08-09T08:04:04.641Z,22.68
2022-08-09T08:05:04.675Z,22.80
2022-08-09T08:06:04.621Z,22.90
2022-08-09T08:07:27.211Z,22.93
2022-08-09T08:09:07.729Z,22.87
2022-08-09T08:09:51.796Z,22.83
2022-08-09T08:10:15.425Z,22.82
2022-08-09T08:12:25.010Z,22.87
2022-08-09T08:12:32.819Z,22.95
2022-08-09T08:13:15.352Z,22.96
2022-08-09T08:14:15.335Z,22.89
2022-08-09T08:15:16.877Z,22.85
2022-08-09T08:16:29.754Z,22.89
2022-08-09T08:17:35.243Z,22.99
2022-08-09T08:18:16.382Z,23.13
2022-08-09T08:19:15.274Z,23.28
2022-08-09T08:20:15.287Z,23.43
2022-08-09T08:21:15.248Z,23.67
2022-08-09T08:22:15.228Z,23.94
2022-08-09T08:23:16.610Z,24.20
2022-08-09T08:24:16.704Z,24.30
2022-08-09T08:25:15.552Z,24.32
2022-08-09T08:26:15.184Z,24.41
2022-08-09T08:27:16.856Z,24.41
2022-08-09T08:28:15.525Z,24.35
2022-08-09T08:29:15.149Z,24.33
2022-08-09T08:30:15.176Z,24.37
2022-08-09T08:31:15.452Z,24.48
2022-08-09T08:32:24.538Z,24.64
2022-08-09T08:33:23.233Z,24.84
2022-08-09T08:34:15.082Z,25.00
2022-08-09T08:35:18.147Z,25.01
2022-08-09T08:36:28.380Z,25.02
2022-08-09T08:37:17.660Z,25.11
2022-08-09T08:38:15.039Z,25.29
2022-08-09T08:39:15.086Z,25.47
2022-08-09T08:40:15.014Z,25.59
2022-08-09T08:41:15.001Z,25.75
2022-08-09T08:42:15.801Z,25.92
2022-08-09T08:43:14.987Z,26.01
2022-08-09T08:44:14.973Z,25.92
2022-08-09T08:45:14.952Z,25.85
2022-08-09T08:46:32.389Z,25.97
2022-08-09T08:47:15.127Z,26.21
2022-08-09T08:48:16.834Z,26.52
2022-08-09T08:49:19.132Z,26.82
2022-08-09T08:50:15.532Z,27.09
2022-08-09T08:51:14.898Z,27.26
2022-08-09T08:52:41.479Z,27.32
2022-08-09T08:53:21.661Z,27.17
2022-08-09T08:54:20.192Z,26.97
2022-08-09T08:55:15.377Z,26.80
2022-08-09T08:56:28.226Z,26.69
2022-08-09T08:57:14.809Z,26.71
2022-08-09T08:58:14.804Z,26.93
2022-08-09T08:59:19.341Z,27.21
2022-08-09T09:00:27.232Z,27.43
2022-08-09T09:01:19.673Z,27.58
2022-08-09T09:02:14.808Z,27.50
2022-08-09T09:03:22.806Z,27.34
2022-08-09T09:04:14.808Z,27.25
2022-08-09T09:05:14.721Z,27.16
2022-08-09T09:06:14.708Z,27.00
2022-08-09T09:07:14.678Z,26.93
2022-08-09T09:08:29.779Z,27.07
2022-08-09T09:09:21.006Z,27.12
2022-08-09T09:10:14.661Z,27.02
2022-08-09T09:11:17.617Z,26.91
2022-08-09T09:12:16.963Z,26.88
2022-08-09T09:13:15.106Z,26.70
2022-08-09T09:14:15.817Z,26.54
2022-08-09T09:15:28.356Z,26.60
2022-08-09T09:16:14.590Z,26.80
2022-08-09T09:17:16.369Z,27.08
2022-08-09T09:18:14.603Z,27.41
2022-08-09T09:19:37.093Z,27.55
2022-08-09T09:20:15.436Z,27.38
2022-08-09T09:21:14.518Z,27.24
2022-08-09T09:22:15.877Z,27.34
2022-08-09T09:23:14.523Z,27.55
2022-08-09T09:24:21.872Z,27.56
2022-08-09T09:26:03.656Z,27.44
2022-08-09T09:26:17.110Z,27.19
2022-08-09T09:28:04.421Z,26.97
2022-08-09T09:28:14.509Z,27.03
2022-08-09T09:29:16.872Z,27.10
2022-08-09T09:31:17.277Z,26.74
2022-08-09T09:32:15.838Z,26.80
2022-08-09T09:33:16.590Z,27.12
2022-08-09T09:34:15.154Z,27.61
2022-08-09T09:35:15.783Z,28.00
2022-08-09T09:36:20.412Z,28.19
2022-08-09T09:37:14.352Z,28.28
2022-08-09T09:38:18.460Z,28.46
2022-08-09T09:39:14.497Z,28.68
2022-08-09T09:40:14.470Z,28.75
2022-08-09T09:41:14.309Z,28.56
2022-08-09T09:42:14.288Z,28.33
2022-08-09T09:43:14.285Z,27.98
2022-08-09T09:44:25.173Z,27.48
2022-08-09T09:45:25.799Z,27.08
2022-08-09T09:47:14.267Z,26.59
2022-08-09T09:48:14.472Z,26.56
2022-08-09T09:49:14.229Z,26.71
2022-08-09T09:50:17.598Z,26.96
2022-08-09T09:51:26.179Z,27.36
2022-08-09T09:52:35.640Z,27.93
2022-08-09T09:53:14.214Z,28.38
2022-08-09T09:54:20.482Z,28.68
2022-08-09T09:55:24.425Z,28.83
2022-08-09T09:56:19.784Z,28.85
2022-08-09T09:58:02.605Z,28.95
2022-08-09T09:58:17.026Z,29.16
2022-08-09T09:59:14.122Z,29.24
2022-08-09T10:00:14.102Z,29.28
2022-08-09T10:01:31.152Z,29.41
2022-08-09T10:02:14.049Z,29.55
2022-08-09T10:03:14.242Z,29.57
2022-08-09T10:04:15.982Z,29.60
2022-08-09T10:05:14.042Z,29.56
2022-08-09T10:06:14.031Z,29.30
2022-08-09T10:07:14.011Z,29.08
2022-08-09T10:08:28.444Z,29.14
2022-08-09T10:09:23.402Z,29.45
2022-08-09T10:10:14.019Z,29.88
2022-08-09T10:11:58.927Z,29.89
2022-08-09T10:12:43.659Z,29.48
2022-08-09T10:13:13.934Z,29.12
2022-08-09T10:14:13.930Z,28.94
2022-08-09T10:15:17.451Z,28.82
2022-08-09T10:16:57.132Z,28.66
2022-08-09T10:17:51.098Z,28.39
2022-08-09T10:18:13.888Z,28.11
2022-08-09T10:19:13.873Z,28.11
2022-08-09T10:20:15.281Z,28.35
2022-08-09T10:21:13.839Z,28.42
2022-08-09T10:22:13.817Z,28.32
2022-08-09T10:23:13.840Z,28.42
2022-08-09T10:24:16.009Z,28.70
2022-08-09T10:25:14.655Z,29.01
2022-08-09T10:26:13.800Z,29.27
2022-08-09T10:27:18.201Z,29.41
2022-08-09T10:28:13.783Z,29.23
2022-08-09T10:29:37.144Z,28.93
2022-08-09T10:32:38.318Z,29.02
2022-08-09T10:34:04.294Z,29.07
2022-08-09T10:34:33.247Z,29.09
2022-08-09T10:35:13.708Z,29.29
2022-08-09T10:36:13.734Z,29.60
2022-08-09T10:37:13.931Z,29.92
2022-08-09T10:38:34.350Z,30.24
2022-08-09T10:39:16.188Z,30.48
2022-08-09T10:40:33.704Z,30.72
2022-08-09T10:41:13.654Z,30.61
2022-08-09T10:42:13.616Z,30.20
2022-08-09T10:43:13.599Z,29.99
2022-08-09T10:44:13.625Z,29.99
2022-08-09T10:45:16.579Z,29.86
2022-08-09T10:46:20.039Z,29.57
2022-08-09T10:48:12.783Z,29.46
2022-08-09T10:48:31.363Z,29.48
2022-08-09T10:49:13.531Z,29.40
2022-08-09T10:50:15.023Z,29.28
2022-08-09T10:51:13.705Z,29.43
2022-08-09T10:52:14.758Z,29.51
2022-08-09T10:53:13.511Z,29.50
2022-08-09T10:54:13.474Z,29.49
2022-08-09T10:55:13.504Z,29.56
2022-08-09T10:56:13.469Z,29.84
2022-08-09T10:57:13.452Z,30.26
2022-08-09T10:58:17.169Z,30.75
2022-08-09T10:59:13.427Z,31.23
2022-08-09T11:00:13.424Z,31.54
2022-08-09T11:03:13.339Z,31.88
2022-08-09T11:03:46.788Z,32.13
2022-08-09T11:04:02.128Z,31.95
2022-08-09T11:04:34.593Z,31.61
2022-08-09T11:05:34.564Z,31.36
2022-08-09T11:06:34.545Z,30.80
2022-08-09T11:07:57.038Z,30.14
2022-08-09T11:08:34.531Z,29.83
2022-08-09T11:09:36.688Z,29.73
2022-08-09T11:10:34.486Z,29.63
2022-08-09T11:11:34.497Z,29.61
2022-08-09T11:12:34.925Z,29.59
2022-08-09T11:13:54.234Z,29.36
2022-08-09T11:14:34.462Z,29.06
2022-08-09T11:15:38.504Z,28.80
2022-08-09T11:16:35.717Z,28.54
2022-08-09T11:17:34.421Z,28.18
2022-08-09T11:18:34.404Z,27.76
2022-08-09T11:20:11.229Z,27.30
2022-08-09T11:20:34.378Z,26.89
2022-08-09T11:21:34.362Z,26.60
2022-08-09T11:22:34.390Z,26.40
2022-08-09T11:23:34.352Z,26.14
2022-08-09T11:24:34.325Z,25.86
2022-08-09T11:25:44.976Z,25.66
2022-08-09T11:26:34.325Z,25.55
2022-08-09T11:28:04.333Z,25.47
2022-08-09T11:28:38.859Z,25.55
2022-08-09T11:30:04.512Z,25.85
2022-08-09T11:30:36.004Z,26.36
2022-08-09T11:31:36.510Z,26.93
2022-08-09T11:32:34.518Z,27.50
2022-08-09T11:33:34.226Z,28.10
2022-08-09T11:34:34.839Z,28.70
2022-08-09T11:35:35.320Z,29.20
2022-08-09T11:36:35.335Z,29.74
2022-08-09T11:37:40.900Z,29.74
2022-08-09T11:38:34.915Z,29.38
2022-08-09T11:39:38.748Z,29.45
2022-08-09T11:40:34.156Z,29.91
2022-08-09T11:41:37.542Z,30.45
2022-08-09T11:42:34.511Z,30.77
2022-08-09T11:43:34.115Z,30.84
2022-08-09T11:44:34.087Z,30.68
2022-08-09T11:45:42.197Z,30.13
2022-08-09T11:46:34.085Z,29.47
2022-08-09T11:47:34.053Z,28.97
2022-08-09T11:48:34.048Z,28.72
2022-08-09T11:49:42.955Z,28.73
2022-08-09T11:52:49.044Z,28.93
2022-08-09T11:54:01.398Z,29.00
2022-08-09T11:54:13.478Z,28.92
2022-08-09T11:54:28.692Z,28.96
2022-08-09T11:55:21.752Z,28.93
2022-08-09T11:56:19.647Z,28.73
2022-08-09T11:57:28.328Z,28.55
2022-08-09T11:58:19.551Z,28.56
2022-08-09T11:59:19.444Z,28.83
2022-08-09T12:00:24.288Z,29.30
2022-08-09T12:02:15.737Z,29.82
2022-08-09T12:02:37.260Z,30.32
2022-08-09T12:03:54.789Z,30.65
2022-08-09T12:04:20.841Z,30.88
2022-08-09T12:05:22.660Z,31.13
2022-08-09T12:06:26.453Z,31.16
2022-08-09T12:07:19.375Z,31.13
2022-08-09T12:08:19.837Z,30.87
2022-08-09T12:09:20.916Z,30.33
2022-08-09T12:10:38.304Z,29.85
2022-08-09T12:11:19.323Z,29.52
2022-08-09T12:12:20.599Z,29.15
2022-08-09T12:14:07.509Z,28.68
2022-08-09T12:14:28.794Z,28.13
2022-08-09T12:15:22.262Z,27.60
2022-08-09T12:16:30.979Z,27.27
2022-08-09T12:17:34.258Z,27.17
2022-08-09T12:18:29.901Z,27.19
2022-08-09T12:19:19.209Z,27.19
2022-08-09T12:20:21.534Z,27.22
2022-08-09T12:21:28.597Z,27.51
2022-08-09T12:22:19.181Z,27.96
2022-08-09T12:23:24.555Z,28.41
2022-08-09T12:24:19.156Z,28.88
2022-08-09T12:25:36.335Z,29.38
2022-08-09T12:26:19.875Z,29.71
2022-08-09T12:29:15.301Z,29.68
2022-08-09T12:29:52.434Z,29.28
2022-08-09T12:30:35.175Z,28.69
2022-08-09T12:30:45.024Z,28.16
2022-08-09T12:32:01.984Z,27.80
2022-08-09T12:32:45.014Z,27.55
2022-08-09T12:33:59.462Z,27.41
2022-08-09T12:34:44.963Z,27.42
2022-08-09T12:35:45.012Z,27.48
2022-08-09T12:36:44.934Z,27.60
2022-08-09T12:37:50.141Z,27.95
2022-08-09T12:38:44.961Z,28.57
2022-08-09T12:39:45.039Z,29.18
2022-08-09T12:40:44.935Z,29.69
2022-08-09T12:41:44.882Z,30.08
2022-08-09T12:42:44.882Z,30.19
2022-08-09T12:44:06.841Z,30.16
2022-08-09T12:44:46.224Z,30.00
2022-08-09T12:45:44.835Z,29.58
2022-08-09T12:46:49.262Z,29.07
2022-08-09T12:47:50.363Z,28.69
2022-08-09T12:48:44.788Z,28.51
2022-08-09T12:49:51.102Z,28.58
2022-08-09T12:50:44.798Z,28.89
2022-08-09T12:52:00.149Z,29.27
2022-08-09T12:53:08.459Z,29.58
2022-08-09T12:53:52.863Z,29.70
2022-08-09T12:54:44.738Z,29.42
2022-08-09T12:56:15.951Z,28.89
2022-08-09T12:56:48.494Z,28.39
2022-08-09T12:57:46.193Z,28.04
2022-08-09T12:58:45.917Z,27.80
2022-08-09T13:00:02.900Z,27.56